Time;durP1;ratioP1;P1;durP2;ratioP2;P2;SDS_P1;SDS_P2;PMS_P1;PMS_P2;Temp;Humidity;BMP_temperature;BMP_pressure;BME280_temperature;BME280_humidity;BME280_pressure;Samples;Min_cycle;Max_cycle;Signal;HPM_P1;HPM_P2
2020/12/30 00:01:29;;;;;;;5.03;3.83;;;;;;;;;;5041815;28;20419;-83
2020/12/30 00:03:55;;;;;;;6.13;3.70;;;;;;;;;;5066526;28;20249;-87
2020/12/30 00:06:21;;;;;;;3.80;3.40;;;;;;;;;;5065705;28;20432;-86
2020/12/30 00:08:47;;;;;;;4.50;3.55;;;;;;;;;;5065652;28;20348;-86
2020/12/30 00:11:14;;;;;;;4.13;2.67;;;;;;;;;;5066025;28;20232;-86
2020/12/30 00:13:40;;;;;;;3.85;3.38;;;;;;;;;;5045196;28;20208;-87
2020/12/30 00:16:06;;;;;;;4.78;3.17;;;;;;;;;;5080306;28;20205;-87
2020/12/30 00:18:31;;;;;;;3.70;3.40;;;;;;;;;;5044047;28;20192;-87
2020/12/30 00:20:57;;;;;;;3.20;2.80;;;;;;;;;;5081143;28;20484;-89
2020/12/30 00:23:24;;;;;;;3.53;3.23;;;;;;;;;;5081118;28;20431;-88
2020/12/30 00:25:50;;;;;;;4.30;3.83;;;;;;;;;;5042763;28;20424;-87
2020/12/30 00:28:16;;;;;;;4.78;4.28;;;;;;;;;;5065395;28;20181;-88
2020/12/30 00:30:42;;;;;;;8.05;4.90;;;;;;;;;;5042385;28;20178;-88
2020/12/30 00:33:08;;;;;;;6.25;4.60;;;;;;;;;;5062442;28;20256;-88
2020/12/30 00:35:34;;;;;;;7.68;5.35;;;;;;;;;;5065045;28;20189;-87
2020/12/30 00:38:00;;;;;;;7.70;5.33;;;;;;;;;;5071782;28;20236;-86
2020/12/30 00:40:26;;;;;;;7.32;5.20;;;;;;;;;;5042926;28;20422;-87
2020/12/30 00:42:52;;;;;;;8.63;6.03;;;;;;;;;;5063932;28;20188;-88
2020/12/30 00:45:18;;;;;;;8.75;5.80;;;;;;;;;;5062867;28;20476;-87
2020/12/30 00:47:44;;;;;;;6.43;5.70;;;;;;;;;;5045795;28;20283;-87
2020/12/30 00:50:10;;;;;;;8.57;7.57;;;;;;;;;;5080759;28;20181;-88
2020/12/30 00:52:36;;;;;;;8.50;7.30;;;;;;;;;;5060062;28;20556;-84
2020/12/30 00:55:03;;;;;;;12.73;7.25;;;;;;;;;;5042052;28;20460;-88
2020/12/30 00:57:29;;;;;;;11.30;8.48;;;;;;;;;;5065110;28;20181;-87
2020/12/30 00:59:55;;;;;;;12.00;9.93;;;;;;;;;;5065077;28;20268;-87
2020/12/30 01:02:21;;;;;;;13.63;9.20;;;;;;;;;;5065143;28;20539;-84
2020/12/30 01:04:47;;;;;;;13.07;8.40;;;;;;;;;;5066427;28;20427;-88
2020/12/30 01:07:16;;;;;;;15.75;10.07;;;;;;;;;;5043869;28;20185;-87
2020/12/30 01:09:43;;;;;;;17.85;11.13;;;;;;;;;;5060283;28;20236;-86
2020/12/30 01:12:09;;;;;;;13.50;10.00;;;;;;;;;;5057750;28;20202;-86
2020/12/30 01:14:35;;;;;;;11.90;9.10;;;;;;;;;;5043564;28;20515;-87
2020/12/30 01:17:01;;;;;;;14.15;9.77;;;;;;;;;;5044647;28;20224;-85
2020/12/30 01:19:27;;;;;;;16.57;9.60;;;;;;;;;;5039099;28;20205;-87
2020/12/30 01:21:53;;;;;;;14.37;9.50;;;;;;;;;;5044152;28;20504;-86
2020/12/30 01:24:19;;;;;;;11.55;9.25;;;;;;;;;;5044322;28;20444;-87
2020/12/30 01:26:45;;;;;;;14.25;8.48;;;;;;;;;;5041413;28;20622;-86
2020/12/30 01:29:11;;;;;;;10.95;8.13;;;;;;;;;;5076424;28;20272;-83
2020/12/30 01:31:37;;;;;;;11.77;9.63;;;;;;;;;;5038589;28;20192;-85
2020/12/30 01:34:04;;;;;;;10.88;7.90;;;;;;;;;;5044386;28;20209;-86
2020/12/30 01:36:30;;;;;;;8.90;7.57;;;;;;;;;;5059173;28;20185;-85
2020/12/30 01:38:56;;;;;;;9.20;7.45;;;;;;;;;;5039485;28;20174;-86
2020/12/30 01:41:23;;;;;;;10.95;8.02;;;;;;;;;;5075853;28;20181;-85
2020/12/30 01:44:15;;;;;;;13.27;8.25;;;;;;;;;;5038311;28;20235;-86
2020/12/30 01:46:41;;;;;;;12.43;9.10;;;;;;;;;;5034985;28;20724;-86
2020/12/30 01:49:17;;;;;;;13.63;8.52;;;;;;;;;;5058120;28;20530;-85
2020/12/30 01:51:44;;;;;;;12.57;8.70;;;;;;;;;;5042980;28;20185;-86
2020/12/30 01:54:11;;;;;;;10.70;8.60;;;;;;;;;;5057173;28;20221;-85
2020/12/30 01:56:37;;;;;;;15.52;9.05;;;;;;;;;;5039887;28;20663;-85
2020/12/30 01:59:07;;;;;;;11.88;8.30;;;;;;;;;;5075862;28;20186;-86
2020/12/30 02:01:36;;;;;;;12.10;9.13;;;;;;;;;;5038132;28;20178;-85
2020/12/30 02:04:03;;;;;;;11.38;8.93;;;;;;;;;;5058797;28;20192;-84
2020/12/30 02:06:29;;;;;;;12.25;9.48;;;;;;;;;;5039397;28;20531;-86
2020/12/30 02:08:55;;;;;;;11.90;8.35;;;;;;;;;;5076184;28;20682;-86
2020/12/30 02:11:22;;;;;;;11.80;8.30;;;;;;;;;;5036133;28;20248;-85
2020/12/30 02:13:48;;;;;;;14.05;10.70;;;;;;;;;;5044058;28;20271;-86
2020/12/30 02:16:14;;;;;;;12.93;9.07;;;;;;;;;;5042858;28;20254;-85
2020/12/30 02:18:40;;;;;;;11.93;7.93;;;;;;;;;;5058020;28;20213;-85
2020/12/30 02:21:06;;;;;;;12.10;9.40;;;;;;;;;;5043838;28;20208;-85
2020/12/30 02:23:34;;;;;;;14.00;9.90;;;;;;;;;;5043228;28;20443;-85
2020/12/30 02:26:00;;;;;;;15.20;8.68;;;;;;;;;;5075419;28;20844;-85
2020/12/30 02:28:26;;;;;;;16.20;9.63;;;;;;;;;;5036743;28;20232;-85
2020/12/30 02:30:54;;;;;;;12.63;9.10;;;;;;;;;;5075810;28;20216;-85
2020/12/30 02:33:20;;;;;;;17.08;9.52;;;;;;;;;;5041297;28;20182;-86
2020/12/30 02:35:46;;;;;;;14.60;9.93;;;;;;;;;;5043015;28;20675;-85
2020/12/30 02:38:12;;;;;;;15.02;8.40;;;;;;;;;;5042815;28;20178;-84
2020/12/30 02:40:38;;;;;;;13.30;9.50;;;;;;;;;;5040519;28;20180;-86
2020/12/30 02:43:04;;;;;;;15.10;8.70;;;;;;;;;;5067099;28;20232;-85
2020/12/30 02:45:30;;;;;;;16.43;8.80;;;;;;;;;;5038745;28;20221;-84
2020/12/30 02:47:56;;;;;;;15.25;8.80;;;;;;;;;;5073463;28;20470;-85
2020/12/30 02:50:22;;;;;;;10.45;8.23;;;;;;;;;;5075224;28;20186;-85
2020/12/30 02:52:48;;;;;;;16.05;9.02;;;;;;;;;;5037903;28;20689;-85
2020/12/30 02:55:14;;;;;;;13.90;9.03;;;;;;;;;;5069485;28;20271;-85
2020/12/30 02:57:40;;;;;;;13.10;8.00;;;;;;;;;;5043636;28;20744;-84
2020/12/30 03:00:06;;;;;;;14.07;8.10;;;;;;;;;;5055857;28;20491;-86
2020/12/30 03:02:32;;;;;;;13.43;8.50;;;;;;;;;;5042006;28;20650;-85
2020/12/30 03:04:58;;;;;;;9.15;6.85;;;;;;;;;;5042772;28;20432;-86
2020/12/30 03:07:24;;;;;;;10.20;7.25;;;;;;;;;;5042909;28;20269;-86
2020/12/30 03:09:50;;;;;;;14.80;8.55;;;;;;;;;;5049745;28;20222;-85
2020/12/30 03:12:16;;;;;;;12.75;8.43;;;;;;;;;;5043357;28;20611;-86
2020/12/30 03:14:42;;;;;;;11.27;8.38;;;;;;;;;;5078016;28;20205;-86
2020/12/30 03:17:08;;;;;;;11.45;8.77;;;;;;;;;;5077449;28;20177;-86
2020/12/30 03:19:34;;;;;;;12.27;8.00;;;;;;;;;;5079197;28;20173;-86
2020/12/30 03:22:00;;;;;;;10.90;8.13;;;;;;;;;;5061116;28;20192;-86
2020/12/30 03:24:26;;;;;;;14.20;8.20;;;;;;;;;;5061452;28;20701;-86
2020/12/30 03:26:52;;;;;;;11.50;8.68;;;;;;;;;;5051674;28;20440;-85
2020/12/30 03:29:18;;;;;;;13.63;9.27;;;;;;;;;;5077140;28;20189;-85
2020/12/30 03:31:44;;;;;;;10.67;8.73;;;;;;;;;;5039847;28;20196;-85
2020/12/30 03:34:10;;;;;;;14.67;9.07;;;;;;;;;;5060995;28;20859;-84
2020/12/30 03:36:37;;;;;;;14.30;8.90;;;;;;;;;;5062396;28;20442;-86
2020/12/30 03:39:03;;;;;;;14.38;9.05;;;;;;;;;;5043352;28;20447;-85
2020/12/30 03:41:29;;;;;;;11.10;8.40;;;;;;;;;;5072606;28;20275;-85
2020/12/30 03:43:55;;;;;;;16.63;9.27;;;;;;;;;;5078974;28;20304;-86
2020/12/30 03:46:21;;;;;;;10.70;8.77;;;;;;;;;;5044096;28;20446;-85
2020/12/30 03:48:47;;;;;;;14.93;10.45;;;;;;;;;;5061049;28;20193;-85
2020/12/30 03:51:13;;;;;;;15.52;10.38;;;;;;;;;;5075409;28;20184;-86
2020/12/30 03:53:39;;;;;;;15.70;9.52;;;;;;;;;;5058693;28;20340;-85
2020/12/30 03:56:05;;;;;;;14.87;9.93;;;;;;;;;;5062660;28;20177;-85
2020/12/30 03:58:31;;;;;;;14.60;8.65;;;;;;;;;;5077403;28;20442;-86
2020/12/30 04:00:56;;;;;;;14.52;10.93;;;;;;;;;;5040933;28;20189;-85
2020/12/30 04:03:22;;;;;;;14.57;10.30;;;;;;;;;;5061032;28;20182;-85
2020/12/30 04:05:50;;;;;;;14.20;9.13;;;;;;;;;;5043745;28;20466;-85
2020/12/30 04:08:16;;;;;;;16.88;9.25;;;;;;;;;;5059548;28;20456;-85
2020/12/30 04:10:42;;;;;;;16.83;10.03;;;;;;;;;;5039601;28;20289;-85
2020/12/30 04:13:08;;;;;;;16.60;9.52;;;;;;;;;;5062082;28;20457;-85
2020/12/30 04:15:34;;;;;;;15.80;9.40;;;;;;;;;;5044238;28;20209;-85
2020/12/30 04:18:00;;;;;;;16.42;10.35;;;;;;;;;;5079915;28;20471;-85
2020/12/30 04:20:26;;;;;;;13.70;9.67;;;;;;;;;;5066007;28;20173;-85
2020/12/30 04:22:52;;;;;;;16.97;10.30;;;;;;;;;;5057581;28;20421;-85
2020/12/30 04:25:18;;;;;;;14.52;9.30;;;;;;;;;;5060875;28;20526;-85
2020/12/30 04:27:44;;;;;;;14.60;9.80;;;;;;;;;;5062836;28;20212;-85
2020/12/30 04:30:10;;;;;;;15.43;9.88;;;;;;;;;;5061874;28;20193;-85
2020/12/30 04:32:36;;;;;;;13.57;9.20;;;;;;;;;;5065899;28;20173;-85
2020/12/30 04:35:02;;;;;;;15.33;9.13;;;;;;;;;;5065372;28;20716;-85
2020/12/30 04:37:28;;;;;;;15.73;9.68;;;;;;;;;;5064640;28;20419;-86
2020/12/30 04:39:54;;;;;;;17.77;9.37;;;;;;;;;;5063390;28;20185;-85
2020/12/30 04:42:39;;;;;;;14.63;9.77;;;;;;;;;;5060054;28;20464;-85
2020/12/30 04:45:09;;;;;;;14.15;10.02;;;;;;;;;;5031215;28;20440;-84
2020/12/30 04:47:35;;;;;;;16.35;9.60;;;;;;;;;;5046865;28;20191;-83
2020/12/30 04:50:02;;;;;;;13.38;9.00;;;;;;;;;;5065542;28;20204;-86
2020/12/30 04:52:28;;;;;;;14.25;9.45;;;;;;;;;;5042465;28;20215;-86
2020/12/30 04:54:55;;;;;;;12.82;9.35;;;;;;;;;;5063083;28;20303;-85
2020/12/30 04:57:30;;;;;;;17.65;10.27;;;;;;;;;;5063979;28;20188;-85
2020/12/30 04:59:57;;;;;;;18.13;11.10;;;;;;;;;;5043593;28;20177;-85
2020/12/30 05:02:32;;;;;;;19.25;9.82;;;;;;;;;;5047148;28;20193;-85
2020/12/30 05:04:58;;;;;;;11.90;8.93;;;;;;;;;;5061762;28;20164;-85
2020/12/30 05:07:26;;;;;;;12.70;9.15;;;;;;;;;;5074537;28;20176;-85
2020/12/30 05:09:52;;;;;;;13.45;9.70;;;;;;;;;;5062807;28;20296;-85
2020/12/30 05:12:19;;;;;;;15.88;8.88;;;;;;;;;;5058754;28;20197;-85
2020/12/30 05:14:45;;;;;;;17.40;9.07;;;;;;;;;;5062458;28;20265;-85
2020/12/30 05:17:12;;;;;;;11.95;8.70;;;;;;;;;;5063836;28;20260;-84
2020/12/30 05:19:39;;;;;;;14.32;9.00;;;;;;;;;;5064503;28;20173;-85
2020/12/30 05:22:05;;;;;;;13.10;8.40;;;;;;;;;;5077165;28;20177;-85
2020/12/30 05:24:31;;;;;;;11.27;8.10;;;;;;;;;;5062018;28;20196;-85
2020/12/30 05:27:01;;;;;;;12.70;7.88;;;;;;;;;;5042245;28;20221;-85
2020/12/30 05:29:27;;;;;;;15.07;8.52;;;;;;;;;;5074509;28;20192;-86
2020/12/30 05:31:54;;;;;;;14.43;8.98;;;;;;;;;;5060712;28;20181;-86
2020/12/30 05:34:20;;;;;;;11.98;8.52;;;;;;;;;;5062382;28;20209;-85
2020/12/30 05:36:47;;;;;;;14.80;10.25;;;;;;;;;;5063972;28;20180;-84
2020/12/30 05:39:20;;;;;;;13.27;9.75;;;;;;;;;;5060633;28;20186;-85
2020/12/30 05:41:46;;;;;;;13.40;8.80;;;;;;;;;;5044951;28;20189;-85
2020/12/30 05:44:19;;;;;;;18.92;9.07;;;;;;;;;;5079259;28;20663;-85
2020/12/30 05:46:45;;;;;;;13.07;9.55;;;;;;;;;;5065001;28;20177;-85
2020/12/30 05:49:11;;;;;;;11.55;9.02;;;;;;;;;;5062805;28;20201;-86
2020/12/30 05:51:38;;;;;;;17.25;10.30;;;;;;;;;;5063674;28;20181;-86
2020/12/30 05:54:08;;;;;;;16.00;8.95;;;;;;;;;;5046508;28;20206;-85
2020/12/30 05:56:35;;;;;;;11.40;8.88;;;;;;;;;;5044952;28;20178;-85
2020/12/30 05:59:03;;;;;;;13.45;8.70;;;;;;;;;;5078670;28;20581;-85
2020/12/30 06:01:29;;;;;;;14.73;8.93;;;;;;;;;;5063889;28;20177;-85
2020/12/30 06:03:55;;;;;;;16.85;9.48;;;;;;;;;;5061719;28;20276;-85
2020/12/30 06:06:22;;;;;;;15.77;9.45;;;;;;;;;;5060053;28;20190;-85
2020/12/30 06:08:49;;;;;;;11.40;8.23;;;;;;;;;;5071633;28;20196;-85
2020/12/30 06:11:22;;;;;;;13.50;8.15;;;;;;;;;;5061939;28;20288;-85
2020/12/30 06:13:52;;;;;;;11.65;8.55;;;;;;;;;;5057885;28;20208;-86
2020/12/30 06:16:19;;;;;;;17.05;9.18;;;;;;;;;;5044628;28;20201;-86
2020/12/30 06:18:45;;;;;;;63.00;40.50;;;;;;;;;;5061236;28;20214;-85
2020/12/30 06:21:12;;;;;;;66.90;46.38;;;;;;;;;;5063233;28;20204;-86
2020/12/30 06:23:39;;;;;;;13.93;10.88;;;;;;;;;;5062470;28;20552;-86
2020/12/30 06:26:07;;;;;;;14.77;9.57;;;;;;;;;;5062087;28;20188;-85
2020/12/30 06:28:33;;;;;;;12.48;9.95;;;;;;;;;;5073928;28;20215;-86
2020/12/30 06:31:01;;;;;;;11.98;7.75;;;;;;;;;;5042219;28;20189;-85
2020/12/30 06:33:27;;;;;;;15.48;8.60;;;;;;;;;;5045184;28;20595;-87
2020/12/30 06:35:57;;;;;;;10.63;8.15;;;;;;;;;;5044797;28;20212;-87
2020/12/30 06:38:25;;;;;;;13.23;8.75;;;;;;;;;;5057255;28;20188;-87
2020/12/30 06:40:58;;;;;;;11.50;7.68;;;;;;;;;;5040943;28;20172;-87
2020/12/30 06:43:36;;;;;;;14.65;8.50;;;;;;;;;;5062002;28;20181;-87
2020/12/30 06:46:03;;;;;;;13.93;10.27;;;;;;;;;;5061006;28;20276;-87
2020/12/30 06:48:29;;;;;;;14.55;9.95;;;;;;;;;;5077944;28;20193;-86
2020/12/30 06:50:55;;;;;;;13.13;10.05;;;;;;;;;;5042220;28;20208;-86
2020/12/30 06:53:25;;;;;;;15.82;10.48;;;;;;;;;;5076996;28;20183;-85
2020/12/30 06:55:51;;;;;;;31.50;18.83;;;;;;;;;;5041041;28;20173;-86
2020/12/30 06:58:36;;;;;;;27.83;17.30;;;;;;;;;;5043977;28;20219;-87
2020/12/30 07:01:02;;;;;;;21.42;13.13;;;;;;;;;;5061213;28;20227;-87
2020/12/30 07:03:34;;;;;;;36.40;25.15;;;;;;;;;;5064538;28;21436;-85
2020/12/30 07:06:19;;;;;;;23.90;16.40;;;;;;;;;;5077719;28;20274;-87
2020/12/30 07:08:45;;;;;;;19.60;12.55;;;;;;;;;;5042567;28;20205;-86
2020/12/30 07:11:11;;;;;;;19.50;12.43;;;;;;;;;;5077433;28;20221;-85
2020/12/30 07:13:40;;;;;;;23.00;13.53;;;;;;;;;;5070536;28;20438;-86
2020/12/30 07:16:32;;;;;;;15.90;10.40;;;;;;;;;;5058905;28;20945;-84
2020/12/30 07:18:58;;;;;;;14.45;9.68;;;;;;;;;;5059485;28;20257;-84
2020/12/30 07:21:24;;;;;;;15.55;10.50;;;;;;;;;;5058821;28;20644;-84
2020/12/30 07:23:50;;;;;;;21.25;12.13;;;;;;;;;;5068415;28;20197;-85
2020/12/30 07:26:17;;;;;;;16.33;9.50;;;;;;;;;;5068941;28;20186;-84
2020/12/30 07:28:44;;;;;;;17.92;11.27;;;;;;;;;;5059592;28;20186;-85
2020/12/30 07:31:10;;;;;;;13.07;9.10;;;;;;;;;;5057939;28;20204;-85
2020/12/30 07:33:37;;;;;;;13.88;9.10;;;;;;;;;;5057693;28;20201;-85
2020/12/30 07:36:08;;;;;;;12.75;9.85;;;;;;;;;;5056846;28;20174;-85
2020/12/30 07:38:34;;;;;;;13.32;8.93;;;;;;;;;;5040748;28;20189;-85
2020/12/30 07:41:03;;;;;;;13.73;11.20;;;;;;;;;;5068775;28;20181;-84
2020/12/30 07:43:29;;;;;;;15.43;10.27;;;;;;;;;;5059855;28;20237;-84
2020/12/30 07:46:13;;;;;;;18.00;11.43;;;;;;;;;;5057003;28;20177;-86
2020/12/30 07:48:39;;;;;;;17.98;9.93;;;;;;;;;;5060416;28;20431;-85
2020/12/30 07:51:05;;;;;;;23.65;14.80;;;;;;;;;;5065576;28;20193;-83
2020/12/30 07:53:31;;;;;;;40.72;23.00;;;;;;;;;;5066328;28;20189;-84
2020/12/30 07:55:57;;;;;;;11.63;8.32;;;;;;;;;;5061637;28;20181;-84
2020/12/30 07:58:24;;;;;;;33.40;18.83;;;;;;;;;;5046441;28;20200;-86
2020/12/30 08:00:51;;;;;;;480.60;202.52;;;;;;;;;;5058850;28;20184;-85
2020/12/30 08:03:17;;;;;;;380.50;132.45;;;;;;;;;;5074592;28;20280;-83
2020/12/30 08:05:46;;;;;;;792.50;345.40;;;;;;;;;;5072586;28;21278;-84
2020/12/30 08:08:13;;;;;;;994.33;462.13;;;;;;;;;;5059882;28;20185;-84
2020/12/30 08:10:39;;;;;;;92.50;43.95;;;;;;;;;;5075799;28;20273;-84
2020/12/30 08:13:08;;;;;;;433.33;187.15;;;;;;;;;;5075186;28;20275;-84
2020/12/30 08:15:34;;;;;;;573.70;266.23;;;;;;;;;;5063424;28;20686;-84
2020/12/30 08:18:00;;;;;;;716.95;375.08;;;;;;;;;;5064503;28;20192;-84
2020/12/30 08:20:26;;;;;;;65.38;52.72;;;;;;;;;;5044836;28;20169;-84
2020/12/30 08:22:58;;;;;;;83.35;76.00;;;;;;;;;;5073769;28;20195;-85
2020/12/30 08:25:24;;;;;;;61.08;54.03;;;;;;;;;;5065523;28;20578;-85
2020/12/30 08:27:50;;;;;;;22.70;20.55;;;;;;;;;;5072224;28;20237;-84
2020/12/30 08:30:19;;;;;;;14.05;12.63;;;;;;;;;;5061814;28;20209;-84
2020/12/30 08:32:58;;;;;;;18.40;15.10;;;;;;;;;;5060830;28;20180;-84
2020/12/30 08:35:31;;;;;;;26.92;24.30;;;;;;;;;;5073416;28;21020;-84
2020/12/30 08:38:15;;;;;;;39.33;35.53;;;;;;;;;;5077902;28;20204;-85
2020/12/30 08:40:42;;;;;;;22.58;20.48;;;;;;;;;;5075300;28;20181;-84
2020/12/30 08:43:11;;;;;;;28.48;25.92;;;;;;;;;;5076037;28;20631;-85
2020/12/30 08:45:38;;;;;;;58.45;53.03;;;;;;;;;;5064454;28;20191;-85
2020/12/30 08:48:22;;;;;;;16.83;15.18;;;;;;;;;;5058697;28;20182;-84
2020/12/30 08:50:52;;;;;;;14.32;12.82;;;;;;;;;;5043635;28;20197;-83
2020/12/30 08:53:34;;;;;;;42.28;38.35;;;;;;;;;;5062253;28;20239;-84
2020/12/30 08:56:00;;;;;;;206.63;145.25;;;;;;;;;;5073623;28;20184;-84
2020/12/30 08:58:26;;;;;;;39.95;31.77;;;;;;;;;;5077117;28;20174;-84
2020/12/30 09:00:52;;;;;;;31.55;22.60;;;;;;;;;;5075685;28;20211;-85
2020/12/30 09:03:20;;;;;;;28.08;23.40;;;;;;;;;;5069155;28;20205;-84
2020/12/30 09:05:52;;;;;;;25.85;20.70;;;;;;;;;;5061893;28;20177;-84
2020/12/30 09:08:19;;;;;;;30.33;25.80;;;;;;;;;;5041577;28;20254;-84
2020/12/30 09:10:46;;;;;;;28.13;20.65;;;;;;;;;;5044847;28;20213;-84
2020/12/30 09:13:17;;;;;;;107.45;74.28;;;;;;;;;;5076176;28;20203;-84
2020/12/30 09:15:43;;;;;;;73.85;57.17;;;;;;;;;;5059694;28;20205;-83
2020/12/30 09:18:13;;;;;;;17.10;13.85;;;;;;;;;;5061726;28;20190;-83
2020/12/30 09:20:39;;;;;;;104.13;64.32;;;;;;;;;;5063436;28;20204;-84
2020/12/30 09:23:05;;;;;;;132.07;74.93;;;;;;;;;;5037814;28;20253;-83
2020/12/30 09:25:32;;;;;;;63.00;35.55;;;;;;;;;;5078154;28;20546;-83
2020/12/30 09:27:58;;;;;;;283.42;146.68;;;;;;;;;;5072694;28;20193;-83
2020/12/30 09:30:29;;;;;;;20.27;12.27;;;;;;;;;;5056832;28;20181;-83
2020/12/30 09:32:56;;;;;;;27.58;24.05;;;;;;;;;;5076626;28;20711;-83
2020/12/30 09:35:27;;;;;;;13.82;12.32;;;;;;;;;;5077437;28;20666;-84
2020/12/30 09:37:59;;;;;;;11.30;10.02;;;;;;;;;;5080465;28;20267;-84
2020/12/30 09:40:26;;;;;;;27.98;25.77;;;;;;;;;;5068975;28;20174;-83
2020/12/30 09:42:53;;;;;;;16.90;15.07;;;;;;;;;;5071135;28;20196;-84
2020/12/30 09:45:20;;;;;;;11.30;8.05;;;;;;;;;;5061311;28;20197;-84
2020/12/30 09:47:46;;;;;;;12.13;9.95;;;;;;;;;;5046745;28;20722;-84
2020/12/30 09:50:13;;;;;;;11.20;10.07;;;;;;;;;;5075663;28;20548;-84
2020/12/30 09:52:43;;;;;;;7.97;7.03;;;;;;;;;;5045640;28;20219;-85
2020/12/30 09:55:10;;;;;;;9.80;8.40;;;;;;;;;;5056483;28;20235;-85
2020/12/30 09:57:37;;;;;;;10.57;7.50;;;;;;;;;;5042502;28;20182;-83
2020/12/30 10:00:07;;;;;;;10.00;7.00;;;;;;;;;;5041490;28;20556;-84
2020/12/30 10:02:34;;;;;;;17.85;13.55;;;;;;;;;;5073067;28;20312;-85
2020/12/30 10:05:00;;;;;;;11.02;8.60;;;;;;;;;;5041244;28;20187;-84
2020/12/30 10:07:26;;;;;;;42.95;38.42;;;;;;;;;;5056014;28;20182;-84
2020/12/30 10:09:52;;;;;;;15.40;12.43;;;;;;;;;;5070639;28;20247;-83
2020/12/30 10:12:22;;;;;;;15.98;13.55;;;;;;;;;;5060866;28;20280;-84
2020/12/30 10:14:48;;;;;;;17.92;15.40;;;;;;;;;;5038716;28;20216;-83
2020/12/30 10:17:14;;;;;;;25.13;20.67;;;;;;;;;;5068078;28;20211;-84
2020/12/30 10:19:40;;;;;;;38.00;31.00;;;;;;;;;;5068875;28;20185;-84
2020/12/30 10:22:09;;;;;;;27.65;24.83;;;;;;;;;;5076055;28;20252;-84
2020/12/30 10:24:36;;;;;;;10.63;8.13;;;;;;;;;;5044152;28;20276;-83
2020/12/30 10:27:02;;;;;;;13.68;6.72;;;;;;;;;;5037455;28;20192;-85
2020/12/30 10:29:31;;;;;;;7.57;6.55;;;;;;;;;;5061028;28;20243;-85
2020/12/30 10:31:58;;;;;;;12.88;6.95;;;;;;;;;;5057160;28;20649;-84
2020/12/30 10:34:24;;;;;;;10.35;7.90;;;;;;;;;;5058906;28;20208;-84
2020/12/30 10:36:50;;;;;;;8.15;6.65;;;;;;;;;;5078155;28;20188;-83
2020/12/30 10:39:16;;;;;;;11.15;7.53;;;;;;;;;;5057376;28;20193;-84
2020/12/30 10:41:42;;;;;;;8.57;6.40;;;;;;;;;;5070317;28;20195;-85
2020/12/30 10:44:08;;;;;;;7.23;6.33;;;;;;;;;;5075299;28;20216;-83
2020/12/30 10:46:34;;;;;;;8.07;6.53;;;;;;;;;;5044215;28;20439;-84
2020/12/30 10:49:00;;;;;;;9.17;7.20;;;;;;;;;;5071691;28;20193;-85
2020/12/30 10:51:26;;;;;;;6.28;5.63;;;;;;;;;;5070193;28;20433;-84
2020/12/30 10:53:52;;;;;;;8.53;6.57;;;;;;;;;;5067158;28;20213;-86
2020/12/30 10:56:18;;;;;;;9.57;6.63;;;;;;;;;;5070218;28;20443;-84
2020/12/30 10:58:44;;;;;;;8.40;6.95;;;;;;;;;;5037312;28;20217;-85
2020/12/30 11:01:13;;;;;;;10.40;6.40;;;;;;;;;;5042855;28;20192;-85
2020/12/30 11:03:40;;;;;;;8.77;6.13;;;;;;;;;;5073196;28;20181;-88
2020/12/30 11:06:06;;;;;;;7.00;6.00;;;;;;;;;;5042718;28;20192;-85
2020/12/30 11:08:32;;;;;;;11.10;6.63;;;;;;;;;;5042291;28;20282;-86
2020/12/30 11:10:59;;;;;;;10.38;6.60;;;;;;;;;;5070913;28;20254;-85
2020/12/30 11:13:26;;;;;;;6.88;5.13;;;;;;;;;;5040857;28;20210;-85
2020/12/30 11:15:52;;;;;;;7.60;5.97;;;;;;;;;;5073346;28;20248;-88
2020/12/30 11:18:18;;;;;;;9.98;6.63;;;;;;;;;;5064288;28;20190;-86
2020/12/30 11:20:44;;;;;;;7.68;5.90;;;;;;;;;;5062546;28;20241;-85
2020/12/30 11:23:10;;;;;;;9.15;6.72;;;;;;;;;;5079457;28;20187;-85
2020/12/30 11:25:37;;;;;;;8.48;6.38;;;;;;;;;;5078722;28;20184;-84
2020/12/30 11:28:03;;;;;;;8.93;6.35;;;;;;;;;;5064853;28;20189;-85
2020/12/30 11:30:30;;;;;;;7.85;5.80;;;;;;;;;;5076659;28;20199;-85
2020/12/30 11:32:56;;;;;;;7.50;5.88;;;;;;;;;;5082327;28;20185;-84
2020/12/30 11:35:22;;;;;;;10.73;7.35;;;;;;;;;;5065911;28;20250;-85
2020/12/30 11:37:48;;;;;;;11.00;6.70;;;;;;;;;;5044842;28;20169;-85
2020/12/30 11:40:14;;;;;;;8.57;6.25;;;;;;;;;;5076998;28;20672;-85
2020/12/30 11:42:40;;;;;;;6.50;5.80;;;;;;;;;;5071510;28;20249;-85
2020/12/30 11:45:07;;;;;;;5.80;4.95;;;;;;;;;;5048161;28;20980;-86
2020/12/30 11:47:33;;;;;;;5.50;4.40;;;;;;;;;;5081233;28;20235;-85
2020/12/30 11:49:59;;;;;;;7.50;6.10;;;;;;;;;;5062609;28;20211;-85
2020/12/30 11:52:25;;;;;;;8.27;5.28;;;;;;;;;;5075841;28;20245;-85
2020/12/30 11:54:51;;;;;;;5.95;4.28;;;;;;;;;;5074580;28;20208;-86
2020/12/30 11:57:17;;;;;;;6.95;4.45;;;;;;;;;;5078686;28;20181;-86
2020/12/30 11:59:43;;;;;;;7.38;5.00;;;;;;;;;;5063674;28;20234;-86
2020/12/30 12:02:09;;;;;;;8.73;5.43;;;;;;;;;;5070450;28;20812;-88
2020/12/30 12:04:35;;;;;;;7.22;4.63;;;;;;;;;;5063251;28;20250;-87
2020/12/30 12:07:02;;;;;;;10.00;5.43;;;;;;;;;;5062364;28;20216;-86
2020/12/30 12:09:28;;;;;;;7.90;4.53;;;;;;;;;;5076872;28;20467;-85
2020/12/30 12:11:55;;;;;;;6.47;4.25;;;;;;;;;;5060864;28;20194;-87
2020/12/30 12:14:21;;;;;;;8.88;5.32;;;;;;;;;;5080486;28;20232;-86
2020/12/30 12:16:54;;;;;;;5.82;4.78;;;;;;;;;;5045078;28;20184;-85
2020/12/30 12:19:20;;;;;;;6.30;5.20;;;;;;;;;;5068250;28;20236;-86
2020/12/30 12:21:46;;;;;;;5.32;4.82;;;;;;;;;;5071248;28;20184;-86
2020/12/30 12:24:13;;;;;;;8.52;5.25;;;;;;;;;;5076689;28;20186;-86
2020/12/30 12:26:39;;;;;;;6.50;4.78;;;;;;;;;;5073251;28;20181;-86
2020/12/30 12:29:37;;;;;;;5.50;4.65;;;;;;;;;;5047825;28;20272;-86
2020/12/30 12:32:04;;;;;;;9.75;5.28;;;;;;;;;;4987536;28;20214;-86
2020/12/30 12:34:30;;;;;;;6.05;4.35;;;;;;;;;;4987551;28;20234;-87
2020/12/30 12:36:56;;;;;;;4.93;4.35;;;;;;;;;;4985005;28;20179;-89
2020/12/30 12:39:22;;;;;;;8.18;4.90;;;;;;;;;;4983954;28;20179;-87
2020/12/30 12:41:55;;;;;;;6.50;3.40;;;;;;;;;;4984034;28;20184;-86
2020/12/30 12:44:21;;;;;;;6.30;3.70;;;;;;;;;;4986190;28;20200;-86
2020/12/30 12:46:48;;;;;;;4.80;3.42;;;;;;;;;;4988285;28;20183;-87
2020/12/30 12:49:15;;;;;;;6.57;3.63;;;;;;;;;;4983680;28;20217;-86
2020/12/30 12:51:51;;;;;;;5.15;3.45;;;;;;;;;;4980931;28;20195;-87
2020/12/30 12:54:17;;;;;;;4.43;4.13;;;;;;;;;;4974879;28;20291;-85
2020/12/30 12:56:44;;;;;;;6.80;4.28;;;;;;;;;;4971138;28;20234;-84
2020/12/30 12:59:10;;;;;;;7.07;4.00;;;;;;;;;;4981134;28;20201;-84
2020/12/30 13:01:36;;;;;;;3.78;3.30;;;;;;;;;;4978391;28;20198;-85
2020/12/30 13:04:02;;;;;;;5.78;3.88;;;;;;;;;;4982481;28;20194;-84
2020/12/30 13:06:29;;;;;;;3.00;2.80;;;;;;;;;;4986966;28;20194;-83
2020/12/30 13:08:56;;;;;;;4.05;3.10;;;;;;;;;;5073234;28;20214;-85
2020/12/30 13:11:22;;;;;;;3.45;3.15;;;;;;;;;;5069915;28;20212;-84
2020/12/30 13:13:48;;;;;;;5.25;3.50;;;;;;;;;;5080483;28;20341;-85
2020/12/30 13:16:14;;;;;;;5.70;3.47;;;;;;;;;;5052147;28;20185;-84
2020/12/30 13:18:40;;;;;;;3.93;2.80;;;;;;;;;;5074828;28;20173;-84
2020/12/30 13:21:06;;;;;;;4.17;3.33;;;;;;;;;;5079658;28;20878;-84
2020/12/30 13:23:32;;;;;;;5.03;3.70;;;;;;;;;;5045359;28;20453;-84
2020/12/30 13:25:58;;;;;;;6.18;3.38;;;;;;;;;;5076627;28;20185;-83
2020/12/30 13:28:24;;;;;;;5.78;2.33;;;;;;;;;;5060910;28;20185;-85
2020/12/30 13:30:50;;;;;;;3.75;2.70;;;;;;;;;;5073562;28;20177;-85
2020/12/30 13:33:17;;;;;;;2.95;2.45;;;;;;;;;;5074834;28;20797;-86
2020/12/30 13:35:45;;;;;;;2.60;2.40;;;;;;;;;;5038281;28;20236;-84
2020/12/30 13:38:11;;;;;;;3.00;1.90;;;;;;;;;;5074590;28;20186;-84
2020/12/30 13:40:37;;;;;;;2.50;2.03;;;;;;;;;;5059143;28;20378;-86
2020/12/30 13:43:03;;;;;;;2.90;2.60;;;;;;;;;;5060939;28;20189;-86
2020/12/30 13:45:28;;;;;;;2.70;2.33;;;;;;;;;;5062336;28;20439;-86
2020/12/30 13:47:54;;;;;;;2.88;2.60;;;;;;;;;;5062965;28;20913;-85
2020/12/30 13:50:20;;;;;;;3.27;2.23;;;;;;;;;;5051774;28;20196;-86
2020/12/30 13:52:46;;;;;;;5.00;2.15;;;;;;;;;;5057707;28;20438;-85
2020/12/30 13:55:12;;;;;;;4.23;2.40;;;;;;;;;;5064432;28;20210;-85
2020/12/30 13:57:38;;;;;;;5.80;1.90;;;;;;;;;;5051340;28;20881;-85
2020/12/30 14:00:04;;;;;;;2.57;1.87;;;;;;;;;;5067344;28;20450;-86
2020/12/30 14:02:30;;;;;;;2.88;2.30;;;;;;;;;;5072254;28;20439;-85
2020/12/30 14:04:56;;;;;;;3.40;2.00;;;;;;;;;;5069327;28;20185;-87
2020/12/30 14:07:22;;;;;;;2.07;1.80;;;;;;;;;;5052220;28;20527;-85
2020/12/30 14:09:48;;;;;;;2.13;1.93;;;;;;;;;;5038047;28;20482;-86
2020/12/30 14:12:14;;;;;;;3.50;2.20;;;;;;;;;;5040851;28;20454;-85
2020/12/30 14:14:40;;;;;;;2.23;2.00;;;;;;;;;;5048700;28;20573;-85
2020/12/30 14:17:06;;;;;;;2.38;1.88;;;;;;;;;;5060409;28;20458;-83
2020/12/30 14:19:32;;;;;;;4.18;1.98;;;;;;;;;;5060028;28;20181;-86
2020/12/30 14:21:58;;;;;;;3.58;2.17;;;;;;;;;;5077666;28;20188;-86
2020/12/30 14:24:24;;;;;;;2.33;1.87;;;;;;;;;;5058924;28;20712;-85
2020/12/30 14:26:50;;;;;;;6.57;2.38;;;;;;;;;;5076573;28;20441;-84
2020/12/30 14:29:16;;;;;;;2.20;1.92;;;;;;;;;;5061745;28;20193;-84
2020/12/30 14:31:42;;;;;;;3.22;2.20;;;;;;;;;;5076138;28;20272;-83